sensor_id;sensor_type;location;lat;lon;timestamp;pressure;altitude;pressure_sealevel;temperature;humidity
34328;BME280;20588;48.840;10.064;2023-06-05T00:01:14;96584.84;;;10.66;95.89
34328;BME280;20588;48.840;10.064;2023-06-05T00:03:41;96586.06;;;10.64;96.63
34328;BME280;20588;48.840;10.064;2023-06-05T00:06:09;96573.81;;;10.59;96.94
34328;BME280;20588;48.840;10.064;2023-06-05T00:08:35;96581.16;;;10.56;97.26
34328;BME280;20588;48.840;10.064;2023-06-05T00:11:02;96583.16;;;10.54;97.60
34328;BME280;20588;48.840;10.064;2023-06-05T00:13:28;96576.84;;;10.50;97.92
34328;BME280;20588;48.840;10.064;2023-06-05T00:15:54;96573.13;;;10.46;98.41
34328;BME280;20588;48.840;10.064;2023-06-05T00:18:20;96577.09;;;10.42;98.93
34328;BME280;20588;48.840;10.064;2023-06-05T00:20:46;96577.53;;;10.39;99.51
34328;BME280;20588;48.840;10.064;2023-06-05T00:23:13;96583.81;;;10.43;99.74
34328;BME280;20588;48.840;10.064;2023-06-05T00:25:40;96580.44;;;10.42;99.98
34328;BME280;20588;48.840;10.064;2023-06-05T00:28:06;96578.06;;;10.41;99.77
34328;BME280;20588;48.840;10.064;2023-06-05T00:30:32;96578.91;;;10.35;99.64
34328;BME280;20588;48.840;10.064;2023-06-05T00:32:58;96577.53;;;10.32;99.73
34328;BME280;20588;48.840;10.064;2023-06-05T00:35:24;96571.81;;;10.30;100.00
34328;BME280;20588;48.840;10.064;2023-06-05T00:37:50;96575.38;;;10.29;100.00
34328;BME280;20588;48.840;10.064;2023-06-05T00:40:16;96568.28;;;10.25;100.00
34328;BME280;20588;48.840;10.064;2023-06-05T00:42:42;96571.84;;;10.24;100.00
34328;BME280;20588;48.840;10.064;2023-06-05T00:45:08;96568.69;;;10.22;100.00
34328;BME280;20588;48.840;10.064;2023-06-05T00:47:34;96580.38;;;10.18;100.00
34328;BME280;20588;48.840;10.064;2023-06-05T00:50:01;96574.28;;;10.12;100.00
34328;BME280;20588;48.840;10.064;2023-06-05T00:52:28;96575.69;;;10.08;100.00
34328;BME280;20588;48.840;10.064;2023-06-05T00:54:54;96576.84;;;10.06;100.00
34328;BME280;20588;48.840;10.064;2023-06-05T00:57:20;96572.91;;;10.03;100.00
34328;BME280;20588;48.840;10.064;2023-06-05T00:59:50;96573.31;;;10.00;100.00
34328;BME280;20588;48.840;10.064;2023-06-05T01:02:16;96572.16;;;9.96;100.00
34328;BME280;20588;48.840;10.064;2023-06-05T01:04:42;96570.19;;;9.92;100.00
34328;BME280;20588;48.840;10.064;2023-06-05T01:07:13;96568.03;;;9.89;100.00
34328;BME280;20588;48.840;10.064;2023-06-05T01:09:42;96565.09;;;9.85;100.00
34328;BME280;20588;48.840;10.064;2023-06-05T01:12:33;96563.31;;;9.79;100.00
34328;BME280;20588;48.840;10.064;2023-06-05T01:15:02;96568.47;;;9.73;100.00
34328;BME280;20588;48.840;10.064;2023-06-05T01:17:31;96569.28;;;9.67;100.00
34328;BME280;20588;48.840;10.064;2023-06-05T01:20:00;96564.75;;;9.62;100.00
34328;BME280;20588;48.840;10.064;2023-06-05T01:22:32;96567.72;;;9.59;100.00
34328;BME280;20588;48.840;10.064;2023-06-05T01:25:00;96563.00;;;9.56;100.00
34328;BME280;20588;48.840;10.064;2023-06-05T01:27:55;96560.44;;;9.56;100.00
34328;BME280;20588;48.840;10.064;2023-06-05T01:30:30;96563.41;;;9.53;100.00
34328;BME280;20588;48.840;10.064;2023-06-05T01:33:15;96562.44;;;9.48;100.00
34328;BME280;20588;48.840;10.064;2023-06-05T01:35:44;96559.06;;;9.47;100.00
34328;BME280;20588;48.840;10.064;2023-06-05T01:38:12;96563.03;;;9.43;100.00
34328;BME280;20588;48.840;10.064;2023-06-05T01:40:40;96566.78;;;9.41;100.00
34328;BME280;20588;48.840;10.064;2023-06-05T01:43:08;96557.31;;;9.35;100.00
34328;BME280;20588;48.840;10.064;2023-06-05T01:45:36;96554.38;;;9.31;100.00
34328;BME280;20588;48.840;10.064;2023-06-05T01:48:03;96558.91;;;9.29;100.00
34328;BME280;20588;48.840;10.064;2023-06-05T01:50:33;96559.53;;;9.25;100.00
34328;BME280;20588;48.840;10.064;2023-06-05T01:53:01;96559.91;;;9.22;100.00
34328;BME280;20588;48.840;10.064;2023-06-05T01:55:28;96562.13;;;9.11;100.00
34328;BME280;20588;48.840;10.064;2023-06-05T01:57:54;96557.78;;;9.05;100.00
34328;BME280;20588;48.840;10.064;2023-06-05T02:00:20;96560.75;;;9.02;100.00
34328;BME280;20588;48.840;10.064;2023-06-05T02:02:47;96553.25;;;9.01;100.00
34328;BME280;20588;48.840;10.064;2023-06-05T02:05:15;96555.22;;;8.99;100.00
34328;BME280;20588;48.840;10.064;2023-06-05T02:07:50;96563.09;;;8.97;100.00
34328;BME280;20588;48.840;10.064;2023-06-05T02:10:19;96561.75;;;8.95;100.00
34328;BME280;20588;48.840;10.064;2023-06-05T02:12:46;96556.41;;;8.90;100.00
34328;BME280;20588;48.840;10.064;2023-06-05T02:15:12;96550.88;;;8.86;100.00
34328;BME280;20588;48.840;10.064;2023-06-05T02:17:39;96554.81;;;8.82;100.00
34328;BME280;20588;48.840;10.064;2023-06-05T02:20:11;96558.38;;;8.81;100.00
34328;BME280;20588;48.840;10.064;2023-06-05T02:22:38;96555.63;;;8.76;100.00
34328;BME280;20588;48.840;10.064;2023-06-05T02:25:06;96557.56;;;8.74;100.00
34328;BME280;20588;48.840;10.064;2023-06-05T02:27:32;96558.16;;;8.70;100.00
34328;BME280;20588;48.840;10.064;2023-06-05T02:29:58;96558.56;;;8.67;100.00
34328;BME280;20588;48.840;10.064;2023-06-05T02:32:25;96547.69;;;8.65;100.00
34328;BME280;20588;48.840;10.064;2023-06-05T02:34:55;96551.25;;;8.64;100.00
34328;BME280;20588;48.840;10.064;2023-06-05T02:37:23;96552.47;;;8.61;100.00
34328;BME280;20588;48.840;10.064;2023-06-05T02:39:50;96550.09;;;8.60;100.00
34328;BME280;20588;48.840;10.064;2023-06-05T02:42:16;96549.88;;;8.55;100.00
34328;BME280;20588;48.840;10.064;2023-06-05T02:44:44;96547.09;;;8.50;100.00
34328;BME280;20588;48.840;10.064;2023-06-05T02:47:11;96554.78;;;8.50;100.00
34328;BME280;20588;48.840;10.064;2023-06-05T02:49:38;96555.78;;;8.49;100.00
34328;BME280;20588;48.840;10.064;2023-06-05T02:52:04;96546.31;;;8.43;100.00
34328;BME280;20588;48.840;10.064;2023-06-05T02:54:31;96553.22;;;8.42;100.00
34328;BME280;20588;48.840;10.064;2023-06-05T02:56:57;96555.41;;;8.39;100.00
34328;BME280;20588;48.840;10.064;2023-06-05T02:59:26;96555.97;;;8.34;100.00
34328;BME280;20588;48.840;10.064;2023-06-05T03:01:53;96556.38;;;8.31;100.00
34328;BME280;20588;48.840;10.064;2023-06-05T03:04:20;96557.94;;;8.32;100.00
34328;BME280;20588;48.840;10.064;2023-06-05T03:06:50;96557.34;;;8.30;100.00
34328;BME280;20588;48.840;10.064;2023-06-05T03:09:16;96560.28;;;8.27;100.00
34328;BME280;20588;48.840;10.064;2023-06-05T03:11:43;96566.41;;;8.26;100.00
34328;BME280;20588;48.840;10.064;2023-06-05T03:14:10;96563.84;;;8.26;100.00
34328;BME280;20588;48.840;10.064;2023-06-05T03:16:37;96555.34;;;8.26;100.00
34328;BME280;20588;48.840;10.064;2023-06-05T03:19:10;96560.47;;;8.26;100.00
34328;BME280;20588;48.840;10.064;2023-06-05T03:21:39;96556.94;;;8.27;100.00
34328;BME280;20588;48.840;10.064;2023-06-05T03:24:11;96560.66;;;8.24;100.00
34328;BME280;20588;48.840;10.064;2023-06-05T03:26:42;96563.22;;;8.24;100.00
34328;BME280;20588;48.840;10.064;2023-06-05T03:29:10;96559.91;;;8.24;100.00
34328;BME280;20588;48.840;10.064;2023-06-05T03:31:37;96562.28;;;8.25;100.00
34328;BME280;20588;48.840;10.064;2023-06-05T03:34:03;96563.84;;;8.26;100.00
34328;BME280;20588;48.840;10.064;2023-06-05T03:36:30;96559.13;;;8.30;100.00
34328;BME280;20588;48.840;10.064;2023-06-05T03:38:59;96563.44;;;8.29;100.00
34328;BME280;20588;48.840;10.064;2023-06-05T03:41:25;96554.78;;;8.30;100.00
34328;BME280;20588;48.840;10.064;2023-06-05T03:43:52;96561.31;;;8.33;100.00
34328;BME280;20588;48.840;10.064;2023-06-05T03:46:18;96560.09;;;8.35;100.00
34328;BME280;20588;48.840;10.064;2023-06-05T03:48:45;96553.59;;;8.39;100.00
34328;BME280;20588;48.840;10.064;2023-06-05T03:51:12;96547.69;;;8.45;100.00
34328;BME280;20588;48.840;10.064;2023-06-05T03:53:39;96552.44;;;8.48;100.00
34328;BME280;20588;48.840;10.064;2023-06-05T03:56:09;96552.63;;;8.53;100.00
34328;BME280;20588;48.840;10.064;2023-06-05T03:58:35;96553.81;;;8.57;100.00
34328;BME280;20588;48.840;10.064;2023-06-05T04:01:01;96552.25;;;8.63;100.00
34328;BME280;20588;48.840;10.064;2023-06-05T04:03:27;96550.06;;;8.66;100.00
34328;BME280;20588;48.840;10.064;2023-06-05T04:05:54;96551.84;;;8.72;100.00
34328;BME280;20588;48.840;10.064;2023-06-05T04:08:20;96555.22;;;8.79;100.00
34328;BME280;20588;48.840;10.064;2023-06-05T04:10:46;96551.06;;;8.85;100.00
34328;BME280;20588;48.840;10.064;2023-06-05T04:13:12;96552.84;;;8.91;100.00
34328;BME280;20588;48.840;10.064;2023-06-05T04:15:39;96557.38;;;9.02;100.00
34328;BME280;20588;48.840;10.064;2023-06-05T04:18:05;96553.78;;;9.23;100.00
34328;BME280;20588;48.840;10.064;2023-06-05T04:20:31;96559.41;;;9.70;100.00
34328;BME280;20588;48.840;10.064;2023-06-05T04:22:57;96554.44;;;10.81;100.00
34328;BME280;20588;48.840;10.064;2023-06-05T04:25:23;96557.81;;;12.15;93.09
34328;BME280;20588;48.840;10.064;2023-06-05T04:27:50;96549.66;;;13.35;84.91
34328;BME280;20588;48.840;10.064;2023-06-05T04:30:17;96551.59;;;14.46;77.76
34328;BME280;20588;48.840;10.064;2023-06-05T04:32:43;96551.44;;;15.36;71.38
34328;BME280;20588;48.840;10.064;2023-06-05T04:35:19;96546.09;;;16.23;66.98
34328;BME280;20588;48.840;10.064;2023-06-05T04:37:45;96547.22;;;16.91;62.14
34328;BME280;20588;48.840;10.064;2023-06-05T04:40:12;96544.53;;;17.54;59.35
34328;BME280;20588;48.840;10.064;2023-06-05T04:42:38;96554.97;;;18.21;56.95
34328;BME280;20588;48.840;10.064;2023-06-05T04:45:06;96545.72;;;18.70;54.30
34328;BME280;20588;48.840;10.064;2023-06-05T04:47:33;96553.00;;;19.18;52.86
34328;BME280;20588;48.840;10.064;2023-06-05T04:50:02;96543.28;;;19.63;51.65
34328;BME280;20588;48.840;10.064;2023-06-05T04:52:34;96554.88;;;20.06;50.58
34328;BME280;20588;48.840;10.064;2023-06-05T04:55:01;96553.47;;;20.34;49.58
34328;BME280;20588;48.840;10.064;2023-06-05T04:57:28;96554.09;;;20.06;49.81
34328;BME280;20588;48.840;10.064;2023-06-05T04:59:55;96555.06;;;19.51;51.05
34328;BME280;20588;48.840;10.064;2023-06-05T05:02:23;96557.72;;;19.11;52.15
34328;BME280;20588;48.840;10.064;2023-06-05T05:04:49;96563.44;;;18.73;53.69
34328;BME280;20588;48.840;10.064;2023-06-05T05:07:15;96551.88;;;18.29;54.70
34328;BME280;20588;48.840;10.064;2023-06-05T05:09:42;96551.34;;;18.27;55.47
34328;BME280;20588;48.840;10.064;2023-06-05T05:12:09;96554.59;;;18.84;55.11
34328;BME280;20588;48.840;10.064;2023-06-05T05:14:36;96554.09;;;20.16;52.35
34328;BME280;20588;48.840;10.064;2023-06-05T05:17:03;96558.38;;;21.75;48.64
34328;BME280;20588;48.840;10.064;2023-06-05T05:19:29;96554.78;;;22.87;45.08
34328;BME280;20588;48.840;10.064;2023-06-05T05:21:56;96553.69;;;23.06;43.47
34328;BME280;20588;48.840;10.064;2023-06-05T05:24:22;96554.19;;;22.58;43.18
34328;BME280;20588;48.840;10.064;2023-06-05T05:26:50;96551.03;;;21.95;44.66
34328;BME280;20588;48.840;10.064;2023-06-05T05:29:17;96556.94;;;21.59;44.92
34328;BME280;20588;48.840;10.064;2023-06-05T05:31:44;96562.16;;;21.59;45.27
34328;BME280;20588;48.840;10.064;2023-06-05T05:34:10;96561.28;;;21.68;45.08
34328;BME280;20588;48.840;10.064;2023-06-05T05:36:36;96563.22;;;21.86;44.99
34328;BME280;20588;48.840;10.064;2023-06-05T05:39:03;96563.25;;;22.05;44.30
34328;BME280;20588;48.840;10.064;2023-06-05T05:41:30;96559.72;;;22.14;44.05
34328;BME280;20588;48.840;10.064;2023-06-05T05:43:56;96566.25;;;22.17;44.37
34328;BME280;20588;48.840;10.064;2023-06-05T05:46:22;96567.50;;;22.19;44.96
34328;BME280;20588;48.840;10.064;2023-06-05T05:48:48;96568.25;;;22.25;45.08
34328;BME280;20588;48.840;10.064;2023-06-05T05:51:14;96570.31;;;22.28;45.07
34328;BME280;20588;48.840;10.064;2023-06-05T05:53:40;96563.94;;;22.34;44.87
34328;BME280;20588;48.840;10.064;2023-06-05T05:56:07;96572.72;;;22.43;44.86
34328;BME280;20588;48.840;10.064;2023-06-05T05:58:33;96567.88;;;22.55;44.79
34328;BME280;20588;48.840;10.064;2023-06-05T06:00:59;96571.31;;;22.69;44.59
34328;BME280;20588;48.840;10.064;2023-06-05T06:03:26;96570.34;;;22.83;44.49
34328;BME280;20588;48.840;10.064;2023-06-05T06:05:53;96576.13;;;22.99;44.31
34328;BME280;20588;48.840;10.064;2023-06-05T06:08:19;96569.28;;;23.17;42.91
34328;BME280;20588;48.840;10.064;2023-06-05T06:10:46;96564.75;;;23.36;43.19
34328;BME280;20588;48.840;10.064;2023-06-05T06:13:12;96574.06;;;23.74;43.38
34328;BME280;20588;48.840;10.064;2023-06-05T06:15:39;96567.34;;;24.08;43.29
34328;BME280;20588;48.840;10.064;2023-06-05T06:18:06;96568.69;;;24.33;41.77
34328;BME280;20588;48.840;10.064;2023-06-05T06:20:32;96567.34;;;23.95;40.68
34328;BME280;20588;48.840;10.064;2023-06-05T06:23:01;96563.28;;;24.51;41.50
34328;BME280;20588;48.840;10.064;2023-06-05T06:25:28;96565.59;;;25.02;41.15
34328;BME280;20588;48.840;10.064;2023-06-05T06:27:57;96574.06;;;25.43;40.42
34328;BME280;20588;48.840;10.064;2023-06-05T06:30:25;96570.78;;;25.77;39.63
34328;BME280;20588;48.840;10.064;2023-06-05T06:32:51;96568.00;;;26.12;38.64
34328;BME280;20588;48.840;10.064;2023-06-05T06:35:17;96572.09;;;26.52;38.69
34328;BME280;20588;48.840;10.064;2023-06-05T06:37:43;96570.72;;;26.72;36.86
34328;BME280;20588;48.840;10.064;2023-06-05T06:40:10;96565.59;;;26.93;36.86
34328;BME280;20588;48.840;10.064;2023-06-05T06:42:37;96570.34;;;27.42;37.22
34328;BME280;20588;48.840;10.064;2023-06-05T06:45:04;96573.19;;;27.91;37.18
34328;BME280;20588;48.840;10.064;2023-06-05T06:47:30;96572.41;;;28.41;37.07
34328;BME280;20588;48.840;10.064;2023-06-05T06:49:57;96570.97;;;28.72;35.22
34328;BME280;20588;48.840;10.064;2023-06-05T06:52:26;96571.59;;;29.10;34.91
34328;BME280;20588;48.840;10.064;2023-06-05T06:54:52;96570.66;;;29.39;34.34
34328;BME280;20588;48.840;10.064;2023-06-05T06:57:19;96571.09;;;29.29;34.39
34328;BME280;20588;48.840;10.064;2023-06-05T06:59:45;96573.25;;;29.15;35.32
34328;BME280;20588;48.840;10.064;2023-06-05T07:04:42;96565.56;;;30.15;33.62
34328;BME280;20588;48.840;10.064;2023-06-05T07:07:14;96569.28;;;30.62;33.67
34328;BME280;20588;48.840;10.064;2023-06-05T07:09:41;96567.78;;;30.88;32.20
34328;BME280;20588;48.840;10.064;2023-06-05T07:12:12;96567.47;;;30.78;32.27
34328;BME280;20588;48.840;10.064;2023-06-05T07:14:39;96569.28;;;31.01;32.96
34328;BME280;20588;48.840;10.064;2023-06-05T07:17:05;96561.75;;;31.19;31.92
34328;BME280;20588;48.840;10.064;2023-06-05T07:19:32;96563.63;;;31.30;32.47
34328;BME280;20588;48.840;10.064;2023-06-05T07:22:00;96563.69;;;31.34;31.85
34328;BME280;20588;48.840;10.064;2023-06-05T07:24:28;96563.75;;;31.65;31.26
34328;BME280;20588;48.840;10.064;2023-06-05T07:26:58;96562.88;;;31.77;30.81
34328;BME280;20588;48.840;10.064;2023-06-05T07:29:24;96567.44;;;31.92;30.72
34328;BME280;20588;48.840;10.064;2023-06-05T07:31:52;96554.81;;;32.04;29.48
34328;BME280;20588;48.840;10.064;2023-06-05T07:34:19;96561.13;;;32.31;30.73
34328;BME280;20588;48.840;10.064;2023-06-05T07:36:46;96558.28;;;32.39;30.66
34328;BME280;20588;48.840;10.064;2023-06-05T07:39:17;96556.41;;;32.40;30.30
34328;BME280;20588;48.840;10.064;2023-06-05T07:41:43;96556.91;;;32.30;30.70
34328;BME280;20588;48.840;10.064;2023-06-05T07:44:17;96549.94;;;32.60;28.85
34328;BME280;20588;48.840;10.064;2023-06-05T07:46:45;96543.78;;;32.06;29.99
34328;BME280;20588;48.840;10.064;2023-06-05T07:49:12;96544.03;;;32.51;30.84
34328;BME280;20588;48.840;10.064;2023-06-05T07:51:39;96539.44;;;32.32;30.17
34328;BME280;20588;48.840;10.064;2023-06-05T07:54:07;96546.66;;;32.47;29.56
34328;BME280;20588;48.840;10.064;2023-06-05T07:56:34;96538.66;;;32.32;30.21
34328;BME280;20588;48.840;10.064;2023-06-05T07:59:01;96543.84;;;32.97;30.65
34328;BME280;20588;48.840;10.064;2023-06-05T08:01:29;96531.03;;;31.96;30.37
34328;BME280;20588;48.840;10.064;2023-06-05T08:03:56;96538.38;;;32.71;30.68
34328;BME280;20588;48.840;10.064;2023-06-05T08:06:23;96530.31;;;33.29;30.57
34328;BME280;20588;48.840;10.064;2023-06-05T08:08:50;96531.25;;;33.59;29.82
34328;BME280;20588;48.840;10.064;2023-06-05T08:11:17;96527.66;;;33.96;29.37
34328;BME280;20588;48.840;10.064;2023-06-05T08:13:43;96539.09;;;34.45;29.78
34328;BME280;20588;48.840;10.064;2023-06-05T08:16:10;96530.91;;;34.64;28.39
34328;BME280;20588;48.840;10.064;2023-06-05T08:18:36;96531.13;;;34.82;27.86
34328;BME280;20588;48.840;10.064;2023-06-05T08:21:02;96530.56;;;34.99;28.05
34328;BME280;20588;48.840;10.064;2023-06-05T08:23:28;96531.13;;;35.15;28.13
34328;BME280;20588;48.840;10.064;2023-06-05T08:25:55;96530.66;;;35.43;28.56
34328;BME280;20588;48.840;10.064;2023-06-05T08:28:21;96532.59;;;35.46;27.04
34328;BME280;20588;48.840;10.064;2023-06-05T08:30:47;96530.66;;;35.46;27.60
34328;BME280;20588;48.840;10.064;2023-06-05T08:33:15;96530.81;;;35.64;27.88
34328;BME280;20588;48.840;10.064;2023-06-05T08:35:41;96531.97;;;35.66;27.07
34328;BME280;20588;48.840;10.064;2023-06-05T08:38:07;96529.34;;;35.70;26.91
34328;BME280;20588;48.840;10.064;2023-06-05T08:40:34;96532.91;;;35.84;27.04
34328;BME280;20588;48.840;10.064;2023-06-05T08:43:02;96528.88;;;36.08;26.69
34328;BME280;20588;48.840;10.064;2023-06-05T08:45:30;96525.47;;;36.18;27.00
34328;BME280;20588;48.840;10.064;2023-06-05T08:48:00;96527.38;;;36.17;26.78
34328;BME280;20588;48.840;10.064;2023-06-05T08:50:29;96527.50;;;36.32;27.51
34328;BME280;20588;48.840;10.064;2023-06-05T08:52:59;96521.78;;;36.37;26.15
34328;BME280;20588;48.840;10.064;2023-06-05T08:55:27;96522.22;;;35.88;27.22
34328;BME280;20588;48.840;10.064;2023-06-05T08:57:53;96529.91;;;35.89;27.73
34328;BME280;20588;48.840;10.064;2023-06-05T09:00:20;96530.38;;;36.05;27.95
34328;BME280;20588;48.840;10.064;2023-06-05T09:02:47;96518.28;;;36.33;26.72
34328;BME280;20588;48.840;10.064;2023-06-05T09:05:17;96523.75;;;36.54;26.65
34328;BME280;20588;48.840;10.064;2023-06-05T09:07:43;96525.38;;;36.69;26.92
34328;BME280;20588;48.840;10.064;2023-06-05T09:10:27;96529.63;;;36.77;26.58
34328;BME280;20588;48.840;10.064;2023-06-05T09:13:00;96515.88;;;36.99;26.90
34328;BME280;20588;48.840;10.064;2023-06-05T09:15:28;96519.44;;;37.21;26.24
34328;BME280;20588;48.840;10.064;2023-06-05T09:18:12;96518.97;;;37.01;24.73
34328;BME280;20588;48.840;10.064;2023-06-05T09:20:43;96515.16;;;37.13;27.23
34328;BME280;20588;48.840;10.064;2023-06-05T09:23:27;96522.78;;;36.93;27.32
34328;BME280;20588;48.840;10.064;2023-06-05T09:25:58;96509.22;;;35.93;27.71
34328;BME280;20588;48.840;10.064;2023-06-05T09:28:25;96508.19;;;35.18;26.84
34328;BME280;20588;48.840;10.064;2023-06-05T09:30:59;96514.22;;;35.44;27.94
34328;BME280;20588;48.840;10.064;2023-06-05T09:33:32;96512.44;;;36.16;26.76
34328;BME280;20588;48.840;10.064;2023-06-05T09:36:04;96513.34;;;36.42;25.59
34328;BME280;20588;48.840;10.064;2023-06-05T09:38:31;96511.25;;;36.82;26.41
34328;BME280;20588;48.840;10.064;2023-06-05T09:41:05;96508.72;;;37.45;25.48
34328;BME280;20588;48.840;10.064;2023-06-05T09:43:32;96517.19;;;37.68;25.38
34328;BME280;20588;48.840;10.064;2023-06-05T09:45:58;96517.91;;;37.41;24.53
34328;BME280;20588;48.840;10.064;2023-06-05T09:48:24;96510.25;;;37.71;25.05
34328;BME280;20588;48.840;10.064;2023-06-05T09:50:52;96516.66;;;36.93;25.08
34328;BME280;20588;48.840;10.064;2023-06-05T09:53:20;96508.06;;;35.44;26.10
34328;BME280;20588;48.840;10.064;2023-06-05T09:55:47;96507.66;;;35.38;26.62
34328;BME280;20588;48.840;10.064;2023-06-05T09:58:14;96506.47;;;35.83;26.08
34328;BME280;20588;48.840;10.064;2023-06-05T10:00:41;96504.59;;;36.55;25.77
34328;BME280;20588;48.840;10.064;2023-06-05T10:03:17;96497.94;;;37.28;25.07
34328;BME280;20588;48.840;10.064;2023-06-05T10:05:44;96493.34;;;37.39;24.39
34328;BME280;20588;48.840;10.064;2023-06-05T10:08:12;96500.25;;;37.40;24.68
34328;BME280;20588;48.840;10.064;2023-06-05T10:10:41;96499.47;;;37.36;25.03
34328;BME280;20588;48.840;10.064;2023-06-05T10:13:09;96496.41;;;37.48;24.61
34328;BME280;20588;48.840;10.064;2023-06-05T10:15:38;96499.09;;;37.48;25.22
34328;BME280;20588;48.840;10.064;2023-06-05T10:18:04;96497.72;;;36.61;24.20
34328;BME280;20588;48.840;10.064;2023-06-05T10:20:31;96500.41;;;36.58;25.40
34328;BME280;20588;48.840;10.064;2023-06-05T10:22:58;96487.13;;;36.96;25.80
34328;BME280;20588;48.840;10.064;2023-06-05T10:25:25;96485.66;;;37.34;25.12
34328;BME280;20588;48.840;10.064;2023-06-05T10:32:13;96481.06;;;37.69;24.27
34328;BME280;20588;48.840;10.064;2023-06-05T10:34:55;96484.09;;;38.00;24.94
34328;BME280;20588;48.840;10.064;2023-06-05T10:37:12;96483.72;;;38.05;24.37
34328;BME280;20588;48.840;10.064;2023-06-05T10:39:50;96482.22;;;37.40;23.09
34328;BME280;20588;48.840;10.064;2023-06-05T10:42:27;96489.16;;;36.31;24.30
34328;BME280;20588;48.840;10.064;2023-06-05T10:44:54;96492.19;;;35.68;24.77
34328;BME280;20588;48.840;10.064;2023-06-05T10:52:45;96477.38;;;36.50;23.51
34328;BME280;20588;48.840;10.064;2023-06-05T10:55:11;96469.41;;;36.74;22.39
34328;BME280;20588;48.840;10.064;2023-06-05T10:58:03;96477.38;;;36.53;24.04
34328;BME280;20588;48.840;10.064;2023-06-05T11:00:30;96472.47;;;35.94;24.03
34328;BME280;20588;48.840;10.064;2023-06-05T11:02:57;96463.63;;;35.90;25.31
34328;BME280;20588;48.840;10.064;2023-06-05T11:05:23;96471.38;;;36.02;25.12
34328;BME280;20588;48.840;10.064;2023-06-05T11:08:10;96468.69;;;36.05;24.86
34328;BME280;20588;48.840;10.064;2023-06-05T11:11:02;96464.66;;;35.75;24.58
34328;BME280;20588;48.840;10.064;2023-06-05T11:13:52;96466.31;;;35.39;25.24
34328;BME280;20588;48.840;10.064;2023-06-05T11:16:31;96464.00;;;35.88;25.90
34328;BME280;20588;48.840;10.064;2023-06-05T11:19:36;96465.41;;;36.29;24.22
34328;BME280;20588;48.840;10.064;2023-06-05T11:22:08;96468.97;;;36.62;24.82
34328;BME280;20588;48.840;10.064;2023-06-05T11:24:36;96454.53;;;37.15;23.42
34328;BME280;20588;48.840;10.064;2023-06-05T11:27:06;96459.13;;;37.15;23.21
34328;BME280;20588;48.840;10.064;2023-06-05T11:29:35;96454.94;;;37.14;24.09
34328;BME280;20588;48.840;10.064;2023-06-05T11:32:11;96448.81;;;37.24;23.66
34328;BME280;20588;48.840;10.064;2023-06-05T11:34:38;96443.81;;;37.36;23.66
34328;BME280;20588;48.840;10.064;2023-06-05T11:37:17;96450.94;;;36.59;24.25
34328;BME280;20588;48.840;10.064;2023-06-05T11:39:44;96444.34;;;35.70;24.96
34328;BME280;20588;48.840;10.064;2023-06-05T11:42:10;96438.66;;;35.79;25.50
34328;BME280;20588;48.840;10.064;2023-06-05T11:44:36;96441.56;;;36.14;24.93
34328;BME280;20588;48.840;10.064;2023-06-05T11:47:02;96444.03;;;36.61;24.08
34328;BME280;20588;48.840;10.064;2023-06-05T11:49:29;96437.94;;;36.71;24.19
34328;BME280;20588;48.840;10.064;2023-06-05T11:51:56;96436.75;;;36.62;23.84
34328;BME280;20588;48.840;10.064;2023-06-05T11:54:30;96433.38;;;36.79;24.44
34328;BME280;20588;48.840;10.064;2023-06-05T11:57:03;96443.44;;;36.06;24.04
34328;BME280;20588;48.840;10.064;2023-06-05T11:59:38;96444.53;;;35.01;25.07
34328;BME280;20588;48.840;10.064;2023-06-05T12:02:05;96429.00;;;34.80;24.99
34328;BME280;20588;48.840;10.064;2023-06-05T12:04:32;96432.00;;;35.12;26.14
34328;BME280;20588;48.840;10.064;2023-06-05T12:06:59;96438.31;;;35.33;25.10
34328;BME280;20588;48.840;10.064;2023-06-05T12:09:27;96438.69;;;35.32;25.31
34328;BME280;20588;48.840;10.064;2023-06-05T12:12:03;96437.59;;;34.30;25.86
34328;BME280;20588;48.840;10.064;2023-06-05T12:14:32;96428.78;;;34.26;24.96
34328;BME280;20588;48.840;10.064;2023-06-05T12:16:59;96432.19;;;34.26;26.95
34328;BME280;20588;48.840;10.064;2023-06-05T12:19:25;96430.69;;;34.55;26.51
34328;BME280;20588;48.840;10.064;2023-06-05T12:22:02;96418.16;;;35.03;26.50
34328;BME280;20588;48.840;10.064;2023-06-05T12:24:29;96412.47;;;35.55;25.24
34328;BME280;20588;48.840;10.064;2023-06-05T12:27:03;96412.66;;;35.83;25.58
34328;BME280;20588;48.840;10.064;2023-06-05T12:29:34;96408.78;;;35.23;25.80
34328;BME280;20588;48.840;10.064;2023-06-05T12:32:02;96404.22;;;35.30;26.09
34328;BME280;20588;48.840;10.064;2023-06-05T12:34:44;96407.44;;;35.46;26.23
34328;BME280;20588;48.840;10.064;2023-06-05T12:37:21;96395.25;;;35.56;26.25
34328;BME280;20588;48.840;10.064;2023-06-05T12:39:47;96399.19;;;35.76;25.81
34328;BME280;20588;48.840;10.064;2023-06-05T12:42:14;96399.66;;;35.85;24.81
34328;BME280;20588;48.840;10.064;2023-06-05T12:44:40;96396.56;;;35.83;24.75
34328;BME280;20588;48.840;10.064;2023-06-05T12:47:06;96392.78;;;35.87;24.47
34328;BME280;20588;48.840;10.064;2023-06-05T12:49:32;96390.16;;;36.01;25.00
34328;BME280;20588;48.840;10.064;2023-06-05T12:51:58;96389.09;;;36.20;25.17
34328;BME280;20588;48.840;10.064;2023-06-05T12:54:27;96393.59;;;35.98;23.69
34328;BME280;20588;48.840;10.064;2023-06-05T12:56:54;96391.34;;;35.43;25.07
34328;BME280;20588;48.840;10.064;2023-06-05T12:59:21;96394.59;;;35.22;25.07
34328;BME280;20588;48.840;10.064;2023-06-05T13:01:48;96393.22;;;35.35;24.98
34328;BME280;20588;48.840;10.064;2023-06-05T13:04:14;96385.16;;;34.92;24.50
34328;BME280;20588;48.840;10.064;2023-06-05T13:06:41;96378.00;;;35.03;26.11
34328;BME280;20588;48.840;10.064;2023-06-05T13:09:08;96379.16;;;35.05;25.08